createdAt,value
2023-01-27T00:00:17.369Z,43.70
2023-01-27T00:03:23.894Z,45.70
2023-01-27T00:06:30.227Z,44.10
2023-01-27T00:12:58.899Z,45.40
2023-01-27T00:16:05.539Z,42.70
2023-01-27T00:19:11.899Z,43.80
2023-01-27T00:25:39.987Z,44.80
2023-01-27T00:32:10.184Z,44.00
2023-01-27T00:35:17.610Z,44.80
2023-01-27T00:38:24.047Z,44.10
2023-01-27T00:41:30.314Z,44.80
2023-01-27T00:44:36.756Z,42.60
2023-01-27T00:47:43.024Z,43.30
2023-01-27T00:53:54.093Z,41.50
2023-01-27T01:00:05.562Z,40.70
2023-01-27T01:03:11.995Z,41.40
2023-01-27T01:06:20.229Z,41.50
2023-01-27T01:09:26.913Z,42.10
2023-01-27T01:12:33.221Z,38.90
2023-01-27T01:18:45.642Z,39.20
2023-01-27T01:21:52.077Z,38.20
2023-01-27T01:24:58.459Z,39.10
2023-01-27T01:28:06.114Z,41.80
2023-01-27T01:31:14.880Z,38.80
2023-01-27T01:34:21.331Z,40.00
2023-01-27T01:37:27.861Z,40.90
2023-01-27T01:40:34.575Z,40.10
2023-01-27T01:43:40.970Z,38.60
2023-01-27T01:46:47.369Z,40.80
2023-01-27T01:49:53.782Z,41.10
2023-01-27T01:59:18.231Z,40.70
2023-01-27T02:02:26.845Z,39.80
2023-01-27T02:05:39.297Z,41.30
2023-01-27T02:08:47.631Z,41.80
2023-01-27T02:11:54.706Z,42.10
2023-01-27T02:15:02.260Z,43.40
2023-01-27T02:18:09.449Z,41.10
2023-01-27T02:21:16.288Z,42.70
2023-01-27T02:24:25.516Z,41.40
2023-01-27T02:27:32.086Z,40.90
2023-01-27T02:30:38.742Z,44.00
2023-01-27T02:33:45.134Z,44.10
2023-01-27T02:40:01.038Z,42.30
2023-01-27T02:43:08.006Z,43.00
2023-01-27T02:46:14.488Z,42.20
2023-01-27T02:49:20.955Z,43.80
2023-01-27T02:52:27.324Z,41.30
2023-01-27T02:58:38.618Z,42.60
2023-01-27T03:01:45.156Z,41.80
2023-01-27T03:04:51.464Z,42.40
2023-01-27T03:11:02.467Z,42.20
2023-01-27T03:14:10.124Z,45.40
2023-01-27T03:17:34.210Z,43.40
2023-01-27T03:20:40.892Z,43.80
2023-01-27T03:23:49.292Z,46.40
2023-01-27T03:26:55.603Z,46.70
2023-01-27T03:30:02.400Z,45.50
2023-01-27T03:33:09.777Z,46.40
2023-01-27T03:36:33.925Z,46.40
2023-01-27T03:39:57.681Z,44.30
2023-01-27T03:43:21.803Z,44.50
2023-01-27T03:46:28.258Z,44.00
2023-01-27T03:49:34.686Z,43.90
2023-01-27T03:52:41.706Z,43.90
2023-01-27T03:55:48.196Z,44.90
2023-01-27T03:58:54.466Z,43.50
2023-01-27T04:02:19.395Z,42.90
2023-01-27T04:05:43.431Z,43.80
2023-01-27T04:08:49.797Z,44.90
2023-01-27T04:15:05.546Z,45.40
2023-01-27T04:18:12.193Z,45.40
2023-01-27T04:21:18.590Z,44.60
2023-01-27T04:27:32.675Z,42.60
2023-01-27T04:30:39.116Z,43.60
2023-01-27T04:33:45.970Z,42.90
2023-01-27T04:36:52.433Z,43.50
2023-01-27T04:39:58.591Z,42.50
2023-01-27T04:43:05.685Z,43.40
2023-01-27T04:46:12.467Z,43.60
2023-01-27T04:49:19.520Z,43.50
2023-01-27T04:52:25.905Z,43.40
2023-01-27T04:55:32.122Z,42.10
2023-01-27T05:01:43.373Z,41.70
2023-01-27T05:04:49.765Z,40.70
2023-01-27T05:07:56.232Z,40.50
2023-01-27T05:11:02.415Z,39.00
2023-01-27T05:14:08.855Z,40.90
2023-01-27T05:17:15.261Z,41.70
2023-01-27T05:20:21.943Z,42.80
2023-01-27T05:23:37.814Z,43.00
2023-01-27T05:26:44.139Z,41.70
2023-01-27T05:32:58.237Z,42.60
2023-01-27T05:36:06.580Z,41.60
2023-01-27T05:39:14.526Z,41.20
2023-01-27T05:42:20.674Z,39.80
2023-01-27T05:45:26.988Z,39.30
2023-01-27T05:51:40.924Z,40.90
2023-01-27T05:54:47.269Z,39.70
2023-01-27T06:00:58.934Z,40.80
2023-01-27T06:04:05.846Z,41.00
2023-01-27T06:07:12.265Z,40.50
2023-01-27T06:10:19.433Z,39.60
2023-01-27T06:13:27.105Z,39.00
2023-01-27T06:16:33.475Z,40.60
2023-01-27T06:19:40.107Z,41.30
2023-01-27T06:22:46.756Z,41.30
2023-01-27T06:25:53.197Z,39.20
2023-01-27T06:29:00.524Z,40.10
2023-01-27T06:32:07.589Z,41.20
2023-01-27T06:35:14.742Z,40.80
2023-01-27T06:38:21.365Z,38.10
2023-01-27T06:44:32.605Z,39.30
2023-01-27T06:47:38.986Z,38.60
2023-01-27T06:50:45.487Z,41.60
2023-01-27T06:53:51.924Z,43.10
2023-01-27T07:00:02.810Z,40.50
2023-01-27T07:03:12.101Z,42.00
2023-01-27T07:06:19.166Z,38.80
2023-01-27T07:09:25.632Z,42.50
2023-01-27T07:12:32.477Z,39.10
2023-01-27T07:15:39.365Z,38.80
2023-01-27T07:18:45.751Z,36.10
2023-01-27T07:21:52.135Z,33.20
2023-01-27T07:28:04.561Z,36.30
2023-01-27T07:31:11.374Z,36.10
2023-01-27T07:34:18.091Z,32.90
2023-01-27T07:37:24.533Z,34.80
2023-01-27T07:40:31.080Z,33.10
2023-01-27T07:43:37.530Z,28.10
2023-01-27T07:46:43.907Z,29.90
2023-01-27T07:52:55.037Z,28.60
2023-01-27T07:56:03.487Z,28.70
2023-01-27T07:59:11.211Z,29.10
2023-01-27T08:02:17.641Z,28.50
2023-01-27T08:05:23.956Z,27.30
2023-01-27T08:11:35.254Z,27.90
2023-01-27T08:14:41.606Z,27.40
2023-01-27T08:20:53.257Z,27.00
2023-01-27T08:24:00.132Z,28.60
2023-01-27T08:27:08.265Z,28.80
2023-01-27T08:30:16.082Z,27.50
2023-01-27T08:33:24.211Z,28.50
2023-01-27T08:36:30.671Z,25.70
2023-01-27T08:39:37.654Z,26.10
2023-01-27T08:42:43.939Z,28.00
2023-01-27T08:48:54.917Z,27.30
2023-01-27T08:52:01.307Z,25.40
2023-01-27T08:55:08.114Z,27.20
2023-01-27T08:58:14.550Z,25.10
2023-01-27T09:01:22.119Z,25.20
2023-01-27T09:04:30.320Z,24.70
2023-01-27T09:07:36.618Z,24.60
2023-01-27T09:10:44.169Z,26.30
2023-01-27T09:13:50.518Z,24.60
2023-01-27T09:20:01.777Z,24.50
2023-01-27T09:23:08.201Z,25.30
2023-01-27T09:26:14.462Z,25.40
2023-01-27T09:32:26.027Z,24.40
2023-01-27T09:35:37.898Z,25.50
2023-01-27T09:38:48.929Z,24.80
2023-01-27T09:42:18.813Z,24.60
2023-01-27T09:45:57.403Z,23.30
2023-01-27T09:49:24.120Z,24.00
2023-01-27T09:52:50.508Z,25.80
2023-01-27T09:56:03.331Z,26.20
2023-01-27T09:59:30.606Z,25.90
2023-01-27T10:03:00.970Z,25.00
2023-01-27T10:06:34.633Z,25.50
2023-01-27T10:10:03.967Z,25.60
2023-01-27T10:13:23.356Z,26.40
2023-01-27T10:16:52.184Z,25.90
2023-01-27T10:20:14.254Z,25.90
2023-01-27T10:23:33.149Z,26.40
2023-01-27T10:26:43.562Z,27.50
2023-01-27T10:29:57.876Z,27.40
2023-01-27T10:33:14.114Z,27.30
2023-01-27T10:36:27.883Z,26.90
2023-01-27T10:39:47.140Z,28.60
2023-01-27T10:43:02.192Z,24.60
2023-01-27T10:46:16.342Z,26.10
2023-01-27T10:49:27.449Z,26.50
2023-01-27T10:52:40.197Z,27.10
2023-01-27T10:55:54.257Z,26.40
2023-01-27T10:59:07.527Z,26.20
2023-01-27T11:02:24.582Z,27.20
2023-01-27T11:05:36.732Z,26.50
2023-01-27T11:08:46.801Z,27.50
2023-01-27T11:11:55.344Z,27.90
2023-01-27T11:15:03.334Z,27.60
2023-01-27T11:18:19.281Z,27.70
2023-01-27T11:21:30.526Z,28.70
2023-01-27T11:24:46.177Z,29.90
2023-01-27T11:28:21.665Z,29.70
2023-01-27T11:31:41.840Z,29.80
2023-01-27T11:34:58.846Z,29.70
2023-01-27T11:38:15.299Z,28.80
2023-01-27T11:41:22.319Z,30.00
2023-01-27T11:44:32.851Z,30.40
2023-01-27T11:47:42.814Z,30.70
2023-01-27T11:50:50.276Z,29.20
2023-01-27T11:54:06.900Z,30.60
2023-01-27T11:57:21.531Z,29.10
2023-01-27T12:00:34.407Z,29.90
2023-01-27T12:03:52.590Z,32.10
2023-01-27T12:07:04.522Z,32.00
2023-01-27T12:10:25.753Z,33.40
2023-01-27T12:13:32.040Z,32.30
2023-01-27T12:19:50.730Z,28.80
2023-01-27T12:26:04.021Z,28.30
2023-01-27T12:29:20.846Z,26.20
2023-01-27T12:32:35.756Z,27.10
2023-01-27T12:35:48.977Z,25.20
2023-01-27T12:38:57.640Z,26.70
2023-01-27T12:42:04.057Z,25.30
2023-01-27T12:45:35.144Z,26.70
2023-01-27T12:48:50.063Z,26.80
2023-01-27T12:51:58.230Z,26.70
2023-01-27T12:55:06.365Z,27.90
2023-01-27T12:58:32.939Z,26.70
2023-01-27T13:01:41.561Z,28.70
2023-01-27T13:04:52.928Z,28.70
2023-01-27T13:07:59.802Z,27.70
2023-01-27T13:11:06.785Z,29.40
2023-01-27T13:14:19.796Z,28.00
2023-01-27T13:17:38.002Z,29.80
2023-01-27T13:20:48.630Z,28.30
2023-01-27T13:23:57.376Z,29.50
2023-01-27T13:27:06.527Z,27.70
2023-01-27T13:30:23.117Z,27.20
2023-01-27T13:33:40.633Z,26.40
2023-01-27T13:36:50.142Z,25.30
2023-01-27T13:40:05.061Z,26.80
2023-01-27T13:43:16.691Z,26.00
2023-01-27T13:46:28.701Z,24.40
2023-01-27T13:49:42.850Z,24.70
2023-01-27T13:52:51.794Z,24.40
2023-01-27T13:56:17.214Z,23.70
2023-01-27T13:59:40.657Z,25.10
2023-01-27T14:03:00.232Z,24.90
2023-01-27T14:06:32.331Z,24.90
2023-01-27T14:09:52.149Z,25.10
2023-01-27T14:13:11.948Z,25.30
2023-01-27T14:16:26.833Z,24.60
2023-01-27T14:19:46.235Z,24.20
2023-01-27T14:23:05.695Z,23.50
2023-01-27T14:26:23.904Z,24.30
2023-01-27T14:29:37.142Z,24.50
2023-01-27T14:32:51.834Z,24.10
2023-01-27T14:36:07.337Z,20.10
2023-01-27T14:39:22.592Z,24.00
2023-01-27T14:42:38.392Z,23.00
2023-01-27T14:45:49.684Z,23.50
2023-01-27T14:49:07.831Z,22.90
2023-01-27T14:52:27.925Z,25.40
2023-01-27T14:55:45.554Z,25.20
2023-01-27T14:59:04.311Z,24.50
2023-01-27T15:02:26.602Z,21.20
2023-01-27T15:05:40.121Z,21.50
2023-01-27T15:08:55.507Z,21.10
2023-01-27T15:12:26.580Z,21.90
2023-01-27T15:15:45.615Z,22.00
2023-01-27T15:19:14.691Z,23.70
2023-01-27T15:22:44.703Z,22.60
2023-01-27T15:25:55.986Z,22.30
2023-01-27T15:29:02.999Z,21.00
2023-01-27T15:32:29.215Z,21.50
2023-01-27T15:35:44.186Z,22.70
2023-01-27T15:39:18.886Z,20.30
2023-01-27T15:42:51.794Z,21.20
2023-01-27T15:45:59.606Z,20.60
2023-01-27T15:49:14.383Z,20.80
2023-01-27T15:52:31.209Z,19.00
2023-01-27T15:55:48.847Z,20.00
2023-01-27T15:59:04.950Z,21.30
2023-01-27T16:05:26.508Z,20.90
2023-01-27T16:08:40.176Z,19.40
2023-01-27T16:11:58.896Z,20.80
2023-01-27T16:15:23.874Z,18.80
2023-01-27T16:18:46.027Z,22.80
2023-01-27T16:21:57.845Z,20.60
2023-01-27T16:25:20.629Z,19.30
2023-01-27T16:28:30.758Z,19.10
2023-01-27T16:31:38.287Z,18.10
2023-01-27T16:34:49.279Z,18.60
2023-01-27T16:38:06.225Z,18.90
2023-01-27T16:41:22.807Z,16.40
2023-01-27T16:44:37.050Z,17.80
2023-01-27T16:47:49.848Z,15.50
2023-01-27T16:51:06.605Z,18.50
2023-01-27T16:54:25.136Z,17.80
2023-01-27T16:57:36.117Z,17.10
2023-01-27T17:00:44.852Z,16.00
2023-01-27T17:03:54.410Z,15.70
2023-01-27T17:07:13.422Z,15.40
2023-01-27T17:10:33.947Z,16.10
2023-01-27T17:13:48.732Z,15.00
2023-01-27T17:16:55.543Z,14.00
2023-01-27T17:20:06.385Z,13.80
2023-01-27T17:23:23.790Z,14.60
2023-01-27T17:26:30.675Z,13.30
2023-01-27T17:29:40.227Z,13.20
2023-01-27T17:32:51.077Z,13.50
2023-01-27T17:36:10.154Z,12.60
2023-01-27T17:39:26.767Z,15.80
2023-01-27T17:42:34.828Z,14.00
2023-01-27T17:45:43.249Z,19.80
2023-01-27T17:48:54.706Z,12.00
2023-01-27T17:52:02.388Z,12.20
2023-01-27T17:55:16.577Z,13.00
2023-01-27T17:58:27.315Z,12.30
2023-01-27T18:01:34.794Z,13.40
2023-01-27T18:04:43.723Z,13.20
2023-01-27T18:07:50.709Z,13.10
2023-01-27T18:11:12.393Z,13.50
2023-01-27T18:14:21.730Z,13.30
2023-01-27T18:17:32.121Z,12.70
2023-01-27T18:20:39.315Z,14.30
2023-01-27T18:23:48.664Z,12.30
2023-01-27T18:26:55.340Z,13.60
2023-01-27T18:30:07.647Z,12.50
2023-01-27T18:33:14.526Z,13.80
2023-01-27T18:36:26.092Z,13.70
2023-01-27T18:39:37.501Z,13.20
2023-01-27T18:42:44.758Z,12.60
2023-01-27T18:45:51.157Z,14.10
2023-01-27T18:48:59.739Z,13.00
2023-01-27T18:52:11.820Z,12.90
2023-01-27T18:55:20.607Z,14.00
2023-01-27T18:58:27.072Z,13.60
2023-01-27T19:01:35.265Z,13.50
2023-01-27T19:04:43.296Z,30.10
2023-01-27T19:07:50.078Z,14.70
2023-01-27T19:10:56.625Z,14.00
2023-01-27T19:14:03.017Z,13.20
2023-01-27T19:17:18.189Z,13.20
2023-01-27T19:20:26.674Z,14.30
2023-01-27T19:23:33.439Z,13.00
2023-01-27T19:26:39.810Z,13.00
2023-01-27T19:32:50.915Z,18.80
2023-01-27T19:35:58.737Z,14.40
2023-01-27T19:39:15.212Z,14.40
2023-01-27T19:42:21.628Z,15.40
2023-01-27T19:45:30.117Z,14.30
2023-01-27T19:48:36.465Z,14.40
2023-01-27T19:54:47.977Z,14.40
2023-01-27T19:57:54.852Z,14.40
2023-01-27T20:01:01.293Z,14.60
2023-01-27T20:04:07.826Z,15.10
2023-01-27T20:07:15.242Z,14.40
2023-01-27T20:10:24.295Z,18.30
2023-01-27T20:13:30.690Z,14.70
2023-01-27T20:16:37.330Z,15.30
2023-01-27T20:19:43.633Z,15.40
2023-01-27T20:25:56.791Z,16.20
2023-01-27T20:29:03.202Z,15.90
2023-01-27T20:32:09.976Z,16.80
2023-01-27T20:35:18.207Z,18.40
2023-01-27T20:38:24.966Z,17.40
2023-01-27T20:41:31.238Z,17.90
2023-01-27T20:47:42.630Z,16.00
2023-01-27T20:50:58.575Z,15.00
2023-01-27T20:54:05.918Z,14.60
2023-01-27T20:57:12.281Z,15.00
2023-01-27T21:03:26.253Z,14.80
2023-01-27T21:06:32.576Z,16.70
2023-01-27T21:12:43.528Z,14.90
2023-01-27T21:15:51.320Z,15.60
2023-01-27T21:18:57.899Z,15.80
2023-01-27T21:22:04.359Z,15.40
2023-01-27T21:25:11.585Z,16.40
2023-01-27T21:28:17.886Z,15.90
2023-01-27T21:34:30.824Z,16.40
2023-01-27T21:40:42.570Z,15.90
2023-01-27T21:47:12.825Z,16.50
2023-01-27T21:50:19.883Z,15.40
2023-01-27T21:53:26.832Z,16.60
2023-01-27T21:56:33.136Z,14.20
2023-01-27T22:02:44.599Z,15.30
2023-01-27T22:05:50.863Z,14.90
2023-01-27T22:12:01.890Z,14.90
2023-01-27T22:18:13.898Z,15.30
2023-01-27T22:21:20.276Z,16.20
2023-01-27T22:27:31.310Z,15.60
2023-01-27T22:33:42.716Z,15.30
2023-01-27T22:36:49.845Z,15.20
2023-01-27T22:39:56.020Z,15.40
2023-01-27T22:43:09.314Z,16.10
2023-01-27T22:46:15.598Z,17.30
2023-01-27T22:52:26.560Z,15.40
2023-01-27T22:58:38.533Z,15.00
2023-01-27T23:01:44.886Z,15.30
2023-01-27T23:04:51.266Z,15.40
2023-01-27T23:11:05.047Z,15.70
2023-01-27T23:14:11.524Z,15.90
2023-01-27T23:17:17.911Z,16.00
2023-01-27T23:20:24.774Z,15.90
2023-01-27T23:23:31.347Z,15.60
2023-01-27T23:26:37.677Z,16.10
2023-01-27T23:32:48.875Z,16.80
2023-01-27T23:36:00.347Z,16.30
2023-01-27T23:39:07.010Z,16.50
2023-01-27T23:42:13.350Z,17.10
2023-01-27T23:48:25.259Z,17.60
2023-01-27T23:51:31.895Z,17.80
2023-01-27T23:54:38.317Z,17.60
2023-01-27T23:57:44.805Z,17.10
